sensor_id;sensor_type;location;lat;lon;timestamp;P1;durP1;ratioP1;P2;durP2;ratioP2
27899;SDS011;15243;50.726;7.080;2023-05-16T00:01:11;17.83;;;7.43;;
27899;SDS011;15243;50.726;7.080;2023-05-16T00:03:38;13.63;;;6.40;;
27899;SDS011;15243;50.726;7.080;2023-05-16T00:06:05;18.25;;;8.13;;
27899;SDS011;15243;50.726;7.080;2023-05-16T00:08:32;13.95;;;8.18;;
27899;SDS011;15243;50.726;7.080;2023-05-16T00:11:00;18.98;;;8.43;;
27899;SDS011;15243;50.726;7.080;2023-05-16T00:13:28;18.60;;;8.35;;
27899;SDS011;15243;50.726;7.080;2023-05-16T00:15:55;18.90;;;6.95;;
27899;SDS011;15243;50.726;7.080;2023-05-16T00:18:22;12.52;;;7.05;;
27899;SDS011;15243;50.726;7.080;2023-05-16T00:20:52;16.75;;;7.55;;
27899;SDS011;15243;50.726;7.080;2023-05-16T00:23:20;14.35;;;6.95;;
27899;SDS011;15243;50.726;7.080;2023-05-16T00:25:47;13.55;;;6.93;;
27899;SDS011;15243;50.726;7.080;2023-05-16T00:28:14;12.05;;;6.97;;
27899;SDS011;15243;50.726;7.080;2023-05-16T00:30:41;12.43;;;7.32;;
27899;SDS011;15243;50.726;7.080;2023-05-16T00:33:08;14.57;;;7.75;;
27899;SDS011;15243;50.726;7.080;2023-05-16T00:35:35;16.00;;;8.30;;
27899;SDS011;15243;50.726;7.080;2023-05-16T00:38:02;13.00;;;8.88;;
27899;SDS011;15243;50.726;7.080;2023-05-16T00:40:29;14.38;;;7.88;;
27899;SDS011;15243;50.726;7.080;2023-05-16T00:42:57;16.63;;;8.23;;
27899;SDS011;15243;50.726;7.080;2023-05-16T00:45:24;14.93;;;8.75;;
27899;SDS011;15243;50.726;7.080;2023-05-16T00:47:51;11.65;;;8.57;;
27899;SDS011;15243;50.726;7.080;2023-05-16T00:50:18;13.52;;;8.20;;
27899;SDS011;15243;50.726;7.080;2023-05-16T00:52:45;13.80;;;8.80;;
27899;SDS011;15243;50.726;7.080;2023-05-16T00:55:12;17.40;;;9.68;;
27899;SDS011;15243;50.726;7.080;2023-05-16T00:57:40;16.15;;;8.93;;
27899;SDS011;15243;50.726;7.080;2023-05-16T01:00:07;13.18;;;7.95;;
27899;SDS011;15243;50.726;7.080;2023-05-16T01:02:37;13.98;;;8.18;;
27899;SDS011;15243;50.726;7.080;2023-05-16T01:05:04;14.90;;;8.88;;
27899;SDS011;15243;50.726;7.080;2023-05-16T01:07:34;14.80;;;8.88;;
27899;SDS011;15243;50.726;7.080;2023-05-16T01:10:02;14.20;;;9.75;;
27899;SDS011;15243;50.726;7.080;2023-05-16T01:15:16;13.05;;;9.38;;
27899;SDS011;15243;50.726;7.080;2023-05-16T01:18:08;12.90;;;9.15;;
27899;SDS011;15243;50.726;7.080;2023-05-16T01:20:48;13.77;;;9.98;;
27899;SDS011;15243;50.726;7.080;2023-05-16T01:28:38;13.98;;;9.88;;
27899;SDS011;15243;50.726;7.080;2023-05-16T01:31:07;18.25;;;10.57;;
27899;SDS011;15243;50.726;7.080;2023-05-16T01:33:34;15.40;;;10.30;;
27899;SDS011;15243;50.726;7.080;2023-05-16T01:42:13;21.20;;;13.10;;
27899;SDS011;15243;50.726;7.080;2023-05-16T01:47:16;21.65;;;13.50;;
27899;SDS011;15243;50.726;7.080;2023-05-16T01:52:30;19.92;;;12.60;;
27899;SDS011;15243;50.726;7.080;2023-05-16T01:55:03;15.75;;;11.10;;
27899;SDS011;15243;50.726;7.080;2023-05-16T01:57:35;17.55;;;12.55;;
27899;SDS011;15243;50.726;7.080;2023-05-16T02:00:05;17.33;;;11.00;;
27899;SDS011;15243;50.726;7.080;2023-05-16T02:02:33;17.08;;;11.57;;
27899;SDS011;15243;50.726;7.080;2023-05-16T02:05:01;15.30;;;10.68;;
27899;SDS011;15243;50.726;7.080;2023-05-16T02:07:28;13.70;;;8.95;;
27899;SDS011;15243;50.726;7.080;2023-05-16T02:09:55;12.35;;;8.32;;
27899;SDS011;15243;50.726;7.080;2023-05-16T02:12:23;10.48;;;7.60;;
27899;SDS011;15243;50.726;7.080;2023-05-16T02:14:50;12.88;;;7.72;;
27899;SDS011;15243;50.726;7.080;2023-05-16T02:17:17;12.75;;;8.38;;
27899;SDS011;15243;50.726;7.080;2023-05-16T02:19:44;14.13;;;10.75;;
27899;SDS011;15243;50.726;7.080;2023-05-16T02:22:11;20.10;;;13.77;;
27899;SDS011;15243;50.726;7.080;2023-05-16T02:24:38;24.67;;;16.40;;
27899;SDS011;15243;50.726;7.080;2023-05-16T02:27:05;27.70;;;17.90;;
27899;SDS011;15243;50.726;7.080;2023-05-16T02:29:31;26.23;;;18.00;;
27899;SDS011;15243;50.726;7.080;2023-05-16T02:31:59;26.60;;;18.08;;
27899;SDS011;15243;50.726;7.080;2023-05-16T02:34:26;28.20;;;18.90;;
27899;SDS011;15243;50.726;7.080;2023-05-16T02:36:53;31.58;;;18.02;;
27899;SDS011;15243;50.726;7.080;2023-05-16T02:39:21;26.08;;;15.85;;
27899;SDS011;15243;50.726;7.080;2023-05-16T02:41:48;21.52;;;15.05;;
27899;SDS011;15243;50.726;7.080;2023-05-16T02:44:15;23.80;;;14.27;;
27899;SDS011;15243;50.726;7.080;2023-05-16T02:46:42;23.08;;;14.88;;
27899;SDS011;15243;50.726;7.080;2023-05-16T02:49:09;24.58;;;14.40;;
27899;SDS011;15243;50.726;7.080;2023-05-16T02:51:36;24.10;;;14.77;;
27899;SDS011;15243;50.726;7.080;2023-05-16T02:54:03;22.48;;;13.07;;
27899;SDS011;15243;50.726;7.080;2023-05-16T02:56:30;23.75;;;13.63;;
27899;SDS011;15243;50.726;7.080;2023-05-16T02:58:58;25.20;;;13.88;;
27899;SDS011;15243;50.726;7.080;2023-05-16T03:01:25;26.95;;;15.15;;
27899;SDS011;15243;50.726;7.080;2023-05-16T03:03:53;21.67;;;14.60;;
27899;SDS011;15243;50.726;7.080;2023-05-16T03:06:20;23.55;;;14.63;;
27899;SDS011;15243;50.726;7.080;2023-05-16T03:08:47;21.27;;;13.27;;
27899;SDS011;15243;50.726;7.080;2023-05-16T03:11:14;19.83;;;11.82;;
27899;SDS011;15243;50.726;7.080;2023-05-16T03:13:44;23.98;;;11.80;;
27899;SDS011;15243;50.726;7.080;2023-05-16T03:16:11;17.83;;;10.23;;
27899;SDS011;15243;50.726;7.080;2023-05-16T03:18:38;20.17;;;8.57;;
27899;SDS011;15243;50.726;7.080;2023-05-16T03:21:05;24.08;;;9.57;;
27899;SDS011;15243;50.726;7.080;2023-05-16T03:23:32;14.88;;;9.27;;
27899;SDS011;15243;50.726;7.080;2023-05-16T03:25:59;20.95;;;9.73;;
27899;SDS011;15243;50.726;7.080;2023-05-16T03:28:26;22.48;;;9.07;;
27899;SDS011;15243;50.726;7.080;2023-05-16T03:30:53;16.60;;;9.10;;
27899;SDS011;15243;50.726;7.080;2023-05-16T03:33:20;18.98;;;8.73;;
27899;SDS011;15243;50.726;7.080;2023-05-16T03:35:48;18.80;;;8.32;;
27899;SDS011;15243;50.726;7.080;2023-05-16T03:38:16;18.10;;;8.13;;
27899;SDS011;15243;50.726;7.080;2023-05-16T03:40:43;21.38;;;9.10;;
27899;SDS011;15243;50.726;7.080;2023-05-16T03:43:10;19.90;;;8.73;;
27899;SDS011;15243;50.726;7.080;2023-05-16T03:45:37;25.60;;;9.85;;
27899;SDS011;15243;50.726;7.080;2023-05-16T03:48:06;23.15;;;9.63;;
27899;SDS011;15243;50.726;7.080;2023-05-16T03:50:35;26.98;;;9.65;;
27899;SDS011;15243;50.726;7.080;2023-05-16T03:53:05;25.70;;;9.48;;
27899;SDS011;15243;50.726;7.080;2023-05-16T03:55:33;21.50;;;10.20;;
27899;SDS011;15243;50.726;7.080;2023-05-16T03:58:00;28.23;;;10.77;;
27899;SDS011;15243;50.726;7.080;2023-05-16T04:00:27;32.22;;;11.45;;
27899;SDS011;15243;50.726;7.080;2023-05-16T04:02:56;34.47;;;13.00;;
27899;SDS011;15243;50.726;7.080;2023-05-16T04:05:23;29.77;;;12.10;;
27899;SDS011;15243;50.726;7.080;2023-05-16T04:07:50;34.55;;;12.98;;
27899;SDS011;15243;50.726;7.080;2023-05-16T04:10:17;36.92;;;12.68;;
27899;SDS011;15243;50.726;7.080;2023-05-16T04:12:44;37.75;;;13.35;;
27899;SDS011;15243;50.726;7.080;2023-05-16T04:15:11;34.65;;;14.05;;
27899;SDS011;15243;50.726;7.080;2023-05-16T04:17:38;37.58;;;12.95;;
27899;SDS011;15243;50.726;7.080;2023-05-16T04:20:06;34.25;;;12.50;;
27899;SDS011;15243;50.726;7.080;2023-05-16T04:22:33;36.80;;;13.30;;
27899;SDS011;15243;50.726;7.080;2023-05-16T04:25:00;32.40;;;13.30;;
27899;SDS011;15243;50.726;7.080;2023-05-16T04:27:27;47.78;;;14.65;;
27899;SDS011;15243;50.726;7.080;2023-05-16T04:29:54;33.85;;;13.48;;
27899;SDS011;15243;50.726;7.080;2023-05-16T04:32:21;33.35;;;11.77;;
27899;SDS011;15243;50.726;7.080;2023-05-16T04:34:49;42.05;;;12.32;;
27899;SDS011;15243;50.726;7.080;2023-05-16T04:37:18;26.23;;;10.20;;
27899;SDS011;15243;50.726;7.080;2023-05-16T04:39:46;28.67;;;11.02;;
27899;SDS011;15243;50.726;7.080;2023-05-16T04:42:13;31.92;;;10.07;;
27899;SDS011;15243;50.726;7.080;2023-05-16T04:44:40;40.22;;;10.40;;
27899;SDS011;15243;50.726;7.080;2023-05-16T04:47:07;28.95;;;9.18;;
27899;SDS011;15243;50.726;7.080;2023-05-16T04:49:34;43.22;;;9.88;;
27899;SDS011;15243;50.726;7.080;2023-05-16T04:52:01;37.20;;;9.55;;
27899;SDS011;15243;50.726;7.080;2023-05-16T04:54:28;35.83;;;8.73;;
27899;SDS011;15243;50.726;7.080;2023-05-16T04:56:55;35.50;;;8.25;;
27899;SDS011;15243;50.726;7.080;2023-05-16T04:59:23;38.33;;;9.23;;
27899;SDS011;15243;50.726;7.080;2023-05-16T05:01:49;39.28;;;9.15;;
27899;SDS011;15243;50.726;7.080;2023-05-16T05:04:16;29.92;;;9.48;;
27899;SDS011;15243;50.726;7.080;2023-05-16T05:06:43;30.13;;;10.55;;
27899;SDS011;15243;50.726;7.080;2023-05-16T05:09:11;35.42;;;12.43;;
27899;SDS011;15243;50.726;7.080;2023-05-16T05:11:37;38.80;;;13.43;;
27899;SDS011;15243;50.726;7.080;2023-05-16T05:14:05;42.33;;;13.85;;
27899;SDS011;15243;50.726;7.080;2023-05-16T05:16:31;44.13;;;14.70;;
27899;SDS011;15243;50.726;7.080;2023-05-16T05:18:58;33.65;;;12.73;;
27899;SDS011;15243;50.726;7.080;2023-05-16T05:21:25;42.33;;;13.43;;
27899;SDS011;15243;50.726;7.080;2023-05-16T05:23:52;32.30;;;11.75;;
27899;SDS011;15243;50.726;7.080;2023-05-16T05:26:19;24.33;;;10.23;;
27899;SDS011;15243;50.726;7.080;2023-05-16T05:28:47;24.17;;;9.98;;
27899;SDS011;15243;50.726;7.080;2023-05-16T05:31:30;31.42;;;10.23;;
27899;SDS011;15243;50.726;7.080;2023-05-16T05:33:59;40.45;;;11.15;;
27899;SDS011;15243;50.726;7.080;2023-05-16T05:36:26;34.45;;;9.23;;
27899;SDS011;15243;50.726;7.080;2023-05-16T05:38:53;28.75;;;7.97;;
27899;SDS011;15243;50.726;7.080;2023-05-16T05:41:20;24.23;;;7.40;;
27899;SDS011;15243;50.726;7.080;2023-05-16T05:43:47;29.80;;;7.78;;
27899;SDS011;15243;50.726;7.080;2023-05-16T05:46:14;21.33;;;5.85;;
27899;SDS011;15243;50.726;7.080;2023-05-16T05:48:42;28.17;;;6.85;;
27899;SDS011;15243;50.726;7.080;2023-05-16T05:51:10;25.95;;;6.75;;
27899;SDS011;15243;50.726;7.080;2023-05-16T05:53:39;31.77;;;7.43;;
27899;SDS011;15243;50.726;7.080;2023-05-16T05:56:06;26.25;;;6.63;;
27899;SDS011;15243;50.726;7.080;2023-05-16T05:58:33;22.73;;;6.65;;
27899;SDS011;15243;50.726;7.080;2023-05-16T06:01:00;25.52;;;5.50;;
27899;SDS011;15243;50.726;7.080;2023-05-16T06:03:27;25.98;;;6.18;;
27899;SDS011;15243;50.726;7.080;2023-05-16T06:05:54;23.42;;;5.75;;
27899;SDS011;15243;50.726;7.080;2023-05-16T06:08:22;18.98;;;6.45;;
27899;SDS011;15243;50.726;7.080;2023-05-16T06:10:49;27.85;;;6.13;;
27899;SDS011;15243;50.726;7.080;2023-05-16T06:13:16;19.80;;;5.40;;
27899;SDS011;15243;50.726;7.080;2023-05-16T06:15:43;22.20;;;5.53;;
27899;SDS011;15243;50.726;7.080;2023-05-16T06:18:10;23.80;;;5.57;;
27899;SDS011;15243;50.726;7.080;2023-05-16T06:20:37;17.33;;;4.57;;
27899;SDS011;15243;50.726;7.080;2023-05-16T06:23:03;22.67;;;5.15;;
27899;SDS011;15243;50.726;7.080;2023-05-16T06:25:31;23.88;;;5.85;;
27899;SDS011;15243;50.726;7.080;2023-05-16T06:27:58;26.20;;;5.15;;
27899;SDS011;15243;50.726;7.080;2023-05-16T06:30:25;22.02;;;5.75;;
27899;SDS011;15243;50.726;7.080;2023-05-16T06:32:52;25.33;;;6.03;;
27899;SDS011;15243;50.726;7.080;2023-05-16T06:35:19;27.50;;;6.72;;
27899;SDS011;15243;50.726;7.080;2023-05-16T06:37:46;17.13;;;5.55;;
27899;SDS011;15243;50.726;7.080;2023-05-16T06:40:13;22.75;;;4.15;;
27899;SDS011;15243;50.726;7.080;2023-05-16T06:42:40;24.02;;;6.38;;
27899;SDS011;15243;50.726;7.080;2023-05-16T06:45:07;20.05;;;4.68;;
27899;SDS011;15243;50.726;7.080;2023-05-16T06:47:35;17.70;;;4.03;;
27899;SDS011;15243;50.726;7.080;2023-05-16T06:50:02;23.55;;;3.63;;
27899;SDS011;15243;50.726;7.080;2023-05-16T06:52:30;23.17;;;4.57;;
27899;SDS011;15243;50.726;7.080;2023-05-16T06:54:57;22.27;;;4.05;;
27899;SDS011;15243;50.726;7.080;2023-05-16T06:57:24;17.73;;;4.40;;
27899;SDS011;15243;50.726;7.080;2023-05-16T06:59:51;21.70;;;3.35;;
27899;SDS011;15243;50.726;7.080;2023-05-16T07:02:18;16.35;;;2.90;;
27899;SDS011;15243;50.726;7.080;2023-05-16T07:04:45;22.83;;;2.50;;
27899;SDS011;15243;50.726;7.080;2023-05-16T07:07:13;22.30;;;3.17;;
27899;SDS011;15243;50.726;7.080;2023-05-16T07:09:40;15.93;;;2.08;;
27899;SDS011;15243;50.726;7.080;2023-05-16T07:12:07;16.02;;;3.13;;
27899;SDS011;15243;50.726;7.080;2023-05-16T07:14:34;22.38;;;3.22;;
27899;SDS011;15243;50.726;7.080;2023-05-16T07:17:01;18.23;;;2.08;;
27899;SDS011;15243;50.726;7.080;2023-05-16T07:19:29;10.70;;;2.17;;
27899;SDS011;15243;50.726;7.080;2023-05-16T07:21:56;21.50;;;3.13;;
27899;SDS011;15243;50.726;7.080;2023-05-16T07:24:24;12.57;;;2.38;;
27899;SDS011;15243;50.726;7.080;2023-05-16T07:26:52;11.82;;;1.92;;
27899;SDS011;15243;50.726;7.080;2023-05-16T07:29:19;11.50;;;2.17;;
27899;SDS011;15243;50.726;7.080;2023-05-16T07:31:46;12.90;;;1.90;;
27899;SDS011;15243;50.726;7.080;2023-05-16T07:34:13;11.02;;;1.88;;
27899;SDS011;15243;50.726;7.080;2023-05-16T07:36:43;17.60;;;2.72;;
27899;SDS011;15243;50.726;7.080;2023-05-16T07:39:10;12.30;;;1.67;;
27899;SDS011;15243;50.726;7.080;2023-05-16T07:41:37;13.73;;;2.28;;
27899;SDS011;15243;50.726;7.080;2023-05-16T07:44:04;16.67;;;2.00;;
27899;SDS011;15243;50.726;7.080;2023-05-16T07:46:31;18.42;;;2.22;;
27899;SDS011;15243;50.726;7.080;2023-05-16T07:48:58;12.70;;;2.55;;
27899;SDS011;15243;50.726;7.080;2023-05-16T07:51:25;17.95;;;3.28;;
27899;SDS011;15243;50.726;7.080;2023-05-16T07:53:52;10.20;;;1.92;;
27899;SDS011;15243;50.726;7.080;2023-05-16T07:56:19;19.98;;;2.38;;
27899;SDS011;15243;50.726;7.080;2023-05-16T07:58:46;18.92;;;3.15;;
27899;SDS011;15243;50.726;7.080;2023-05-16T08:01:14;13.90;;;2.10;;
27899;SDS011;15243;50.726;7.080;2023-05-16T08:03:42;12.10;;;2.45;;
27899;SDS011;15243;50.726;7.080;2023-05-16T08:06:09;12.98;;;2.45;;
27899;SDS011;15243;50.726;7.080;2023-05-16T08:08:36;15.18;;;3.72;;
27899;SDS011;15243;50.726;7.080;2023-05-16T08:11:04;13.07;;;2.42;;
27899;SDS011;15243;50.726;7.080;2023-05-16T08:13:30;10.27;;;1.83;;
27899;SDS011;15243;50.726;7.080;2023-05-16T08:15:57;12.57;;;2.17;;
27899;SDS011;15243;50.726;7.080;2023-05-16T08:18:25;17.55;;;2.13;;
27899;SDS011;15243;50.726;7.080;2023-05-16T08:20:52;13.05;;;2.13;;
27899;SDS011;15243;50.726;7.080;2023-05-16T08:23:19;15.52;;;2.55;;
27899;SDS011;15243;50.726;7.080;2023-05-16T08:25:48;12.18;;;2.42;;
27899;SDS011;15243;50.726;7.080;2023-05-16T08:28:16;10.48;;;2.22;;
27899;SDS011;15243;50.726;7.080;2023-05-16T08:30:43;15.05;;;2.17;;
27899;SDS011;15243;50.726;7.080;2023-05-16T08:33:13;11.60;;;1.80;;
27899;SDS011;15243;50.726;7.080;2023-05-16T08:35:42;12.70;;;2.20;;
27899;SDS011;15243;50.726;7.080;2023-05-16T08:38:10;10.57;;;2.05;;
27899;SDS011;15243;50.726;7.080;2023-05-16T08:40:37;9.48;;;1.70;;
27899;SDS011;15243;50.726;7.080;2023-05-16T08:43:05;18.65;;;2.05;;
27899;SDS011;15243;50.726;7.080;2023-05-16T08:45:35;10.80;;;2.00;;
27899;SDS011;15243;50.726;7.080;2023-05-16T08:48:02;11.80;;;2.00;;
27899;SDS011;15243;50.726;7.080;2023-05-16T08:50:35;10.88;;;1.70;;
27899;SDS011;15243;50.726;7.080;2023-05-16T08:53:06;8.27;;;1.58;;
27899;SDS011;15243;50.726;7.080;2023-05-16T08:55:35;12.13;;;1.80;;
27899;SDS011;15243;50.726;7.080;2023-05-16T08:58:10;13.65;;;2.28;;
27899;SDS011;15243;50.726;7.080;2023-05-16T09:00:40;9.85;;;2.45;;
27899;SDS011;15243;50.726;7.080;2023-05-16T09:03:07;9.40;;;1.90;;
27899;SDS011;15243;50.726;7.080;2023-05-16T09:05:35;11.20;;;1.80;;
27899;SDS011;15243;50.726;7.080;2023-05-16T09:08:02;14.63;;;2.25;;
27899;SDS011;15243;50.726;7.080;2023-05-16T09:10:30;14.32;;;2.30;;
27899;SDS011;15243;50.726;7.080;2023-05-16T09:13:01;11.52;;;2.05;;
27899;SDS011;15243;50.726;7.080;2023-05-16T09:15:30;11.93;;;2.10;;
27899;SDS011;15243;50.726;7.080;2023-05-16T09:18:01;12.05;;;2.17;;
27899;SDS011;15243;50.726;7.080;2023-05-16T09:20:32;9.43;;;2.75;;
27899;SDS011;15243;50.726;7.080;2023-05-16T09:23:01;15.05;;;2.33;;
27899;SDS011;15243;50.726;7.080;2023-05-16T09:25:31;12.57;;;3.13;;
27899;SDS011;15243;50.726;7.080;2023-05-16T09:27:59;24.02;;;3.08;;
27899;SDS011;15243;50.726;7.080;2023-05-16T09:30:32;9.60;;;2.65;;
27899;SDS011;15243;50.726;7.080;2023-05-16T09:33:15;12.73;;;2.97;;
27899;SDS011;15243;50.726;7.080;2023-05-16T09:35:55;13.38;;;2.92;;
27899;SDS011;15243;50.726;7.080;2023-05-16T09:38:26;7.70;;;3.13;;
27899;SDS011;15243;50.726;7.080;2023-05-16T09:40:54;16.30;;;3.20;;
27899;SDS011;15243;50.726;7.080;2023-05-16T09:43:24;17.25;;;3.08;;
27899;SDS011;15243;50.726;7.080;2023-05-16T09:45:53;15.30;;;3.28;;
27899;SDS011;15243;50.726;7.080;2023-05-16T09:48:20;10.00;;;2.20;;
27899;SDS011;15243;50.726;7.080;2023-05-16T09:50:52;15.30;;;3.53;;
27899;SDS011;15243;50.726;7.080;2023-05-16T09:53:26;9.95;;;2.33;;
27899;SDS011;15243;50.726;7.080;2023-05-16T09:56:07;8.75;;;2.50;;
27899;SDS011;15243;50.726;7.080;2023-05-16T09:58:37;9.02;;;2.10;;
27899;SDS011;15243;50.726;7.080;2023-05-16T10:01:07;7.25;;;1.88;;
27899;SDS011;15243;50.726;7.080;2023-05-16T10:03:39;9.65;;;1.50;;
27899;SDS011;15243;50.726;7.080;2023-05-16T10:06:07;7.40;;;1.90;;
27899;SDS011;15243;50.726;7.080;2023-05-16T10:11:25;13.15;;;2.28;;
27899;SDS011;15243;50.726;7.080;2023-05-16T10:13:54;11.75;;;1.85;;
27899;SDS011;15243;50.726;7.080;2023-05-16T10:16:30;14.40;;;1.95;;
27899;SDS011;15243;50.726;7.080;2023-05-16T10:18:58;11.25;;;2.70;;
27899;SDS011;15243;50.726;7.080;2023-05-16T10:21:27;9.98;;;1.88;;
27899;SDS011;15243;50.726;7.080;2023-05-16T10:23:56;11.43;;;1.83;;
27899;SDS011;15243;50.726;7.080;2023-05-16T10:26:30;6.82;;;2.50;;
27899;SDS011;15243;50.726;7.080;2023-05-16T10:28:59;7.47;;;2.28;;
27899;SDS011;15243;50.726;7.080;2023-05-16T10:31:42;5.82;;;1.77;;
27899;SDS011;15243;50.726;7.080;2023-05-16T10:34:23;8.63;;;2.38;;
27899;SDS011;15243;50.726;7.080;2023-05-16T10:36:55;11.57;;;1.98;;
27899;SDS011;15243;50.726;7.080;2023-05-16T10:39:39;10.02;;;2.17;;
27899;SDS011;15243;50.726;7.080;2023-05-16T10:42:12;7.07;;;1.70;;
27899;SDS011;15243;50.726;7.080;2023-05-16T10:44:43;6.27;;;2.03;;
27899;SDS011;15243;50.726;7.080;2023-05-16T10:47:27;8.13;;;2.10;;
27899;SDS011;15243;50.726;7.080;2023-05-16T10:49:59;11.68;;;2.38;;
27899;SDS011;15243;50.726;7.080;2023-05-16T10:52:36;11.68;;;2.45;;
27899;SDS011;15243;50.726;7.080;2023-05-16T10:55:14;11.52;;;1.98;;
27899;SDS011;15243;50.726;7.080;2023-05-16T10:57:47;9.32;;;2.10;;
27899;SDS011;15243;50.726;7.080;2023-05-16T11:00:23;3.90;;;1.42;;
27899;SDS011;15243;50.726;7.080;2023-05-16T11:02:50;7.32;;;1.70;;
27899;SDS011;15243;50.726;7.080;2023-05-16T11:05:32;9.25;;;1.60;;
27899;SDS011;15243;50.726;7.080;2023-05-16T11:08:04;7.30;;;1.70;;
27899;SDS011;15243;50.726;7.080;2023-05-16T11:10:32;5.45;;;1.40;;
27899;SDS011;15243;50.726;7.080;2023-05-16T11:13:02;8.23;;;1.35;;
27899;SDS011;15243;50.726;7.080;2023-05-16T11:15:34;7.60;;;2.05;;
27899;SDS011;15243;50.726;7.080;2023-05-16T11:20:35;12.88;;;3.05;;
27899;SDS011;15243;50.726;7.080;2023-05-16T11:25:46;11.18;;;2.08;;
27899;SDS011;15243;50.726;7.080;2023-05-16T11:28:19;10.00;;;1.48;;
27899;SDS011;15243;50.726;7.080;2023-05-16T11:30:53;5.53;;;1.48;;
27899;SDS011;15243;50.726;7.080;2023-05-16T11:33:24;6.00;;;1.63;;
27899;SDS011;15243;50.726;7.080;2023-05-16T11:36:03;9.88;;;1.45;;
27899;SDS011;15243;50.726;7.080;2023-05-16T11:38:34;6.85;;;1.73;;
27899;SDS011;15243;50.726;7.080;2023-05-16T11:41:06;5.53;;;1.20;;
27899;SDS011;15243;50.726;7.080;2023-05-16T11:43:41;7.72;;;1.40;;
27899;SDS011;15243;50.726;7.080;2023-05-16T11:46:09;4.45;;;1.10;;
27899;SDS011;15243;50.726;7.080;2023-05-16T11:48:40;7.78;;;1.60;;
27899;SDS011;15243;50.726;7.080;2023-05-16T11:51:08;5.13;;;1.40;;
27899;SDS011;15243;50.726;7.080;2023-05-16T11:53:36;8.82;;;1.50;;
27899;SDS011;15243;50.726;7.080;2023-05-16T11:56:03;5.72;;;1.58;;
27899;SDS011;15243;50.726;7.080;2023-05-16T11:58:32;9.32;;;2.13;;
27899;SDS011;15243;50.726;7.080;2023-05-16T12:01:02;7.68;;;1.60;;
27899;SDS011;15243;50.726;7.080;2023-05-16T12:03:30;7.00;;;1.42;;
27899;SDS011;15243;50.726;7.080;2023-05-16T12:06:01;8.10;;;1.70;;
27899;SDS011;15243;50.726;7.080;2023-05-16T12:08:28;7.50;;;2.08;;
27899;SDS011;15243;50.726;7.080;2023-05-16T12:10:56;6.00;;;1.60;;
27899;SDS011;15243;50.726;7.080;2023-05-16T12:13:23;7.47;;;1.40;;
27899;SDS011;15243;50.726;7.080;2023-05-16T12:15:51;7.80;;;1.83;;
27899;SDS011;15243;50.726;7.080;2023-05-16T12:18:18;7.07;;;2.30;;
27899;SDS011;15243;50.726;7.080;2023-05-16T12:20:49;7.18;;;1.92;;
27899;SDS011;15243;50.726;7.080;2023-05-16T12:23:17;8.40;;;1.73;;
27899;SDS011;15243;50.726;7.080;2023-05-16T12:25:45;5.80;;;1.63;;
27899;SDS011;15243;50.726;7.080;2023-05-16T12:28:13;13.95;;;2.20;;
27899;SDS011;15243;50.726;7.080;2023-05-16T12:30:42;11.63;;;1.77;;
27899;SDS011;15243;50.726;7.080;2023-05-16T12:33:17;6.40;;;1.60;;
27899;SDS011;15243;50.726;7.080;2023-05-16T12:35:46;11.52;;;1.80;;
27899;SDS011;15243;50.726;7.080;2023-05-16T12:38:13;5.30;;;1.75;;
27899;SDS011;15243;50.726;7.080;2023-05-16T12:40:41;5.80;;;1.90;;
27899;SDS011;15243;50.726;7.080;2023-05-16T12:43:20;6.47;;;1.55;;
27899;SDS011;15243;50.726;7.080;2023-05-16T12:45:49;4.40;;;1.77;;
27899;SDS011;15243;50.726;7.080;2023-05-16T12:48:20;5.63;;;1.45;;
27899;SDS011;15243;50.726;7.080;2023-05-16T12:50:47;11.68;;;2.05;;
27899;SDS011;15243;50.726;7.080;2023-05-16T12:53:15;11.00;;;2.20;;
27899;SDS011;15243;50.726;7.080;2023-05-16T12:55:43;6.25;;;2.00;;
27899;SDS011;15243;50.726;7.080;2023-05-16T12:58:11;6.03;;;1.58;;
27899;SDS011;15243;50.726;7.080;2023-05-16T13:00:41;6.55;;;1.60;;
27899;SDS011;15243;50.726;7.080;2023-05-16T13:03:09;7.22;;;1.40;;
27899;SDS011;15243;50.726;7.080;2023-05-16T13:05:37;7.53;;;1.67;;
27899;SDS011;15243;50.726;7.080;2023-05-16T13:08:05;7.80;;;1.88;;
27899;SDS011;15243;50.726;7.080;2023-05-16T13:10:32;6.47;;;1.40;;
27899;SDS011;15243;50.726;7.080;2023-05-16T13:12:59;4.05;;;0.90;;
27899;SDS011;15243;50.726;7.080;2023-05-16T13:15:26;4.65;;;1.20;;
27899;SDS011;15243;50.726;7.080;2023-05-16T13:17:54;5.15;;;0.90;;
27899;SDS011;15243;50.726;7.080;2023-05-16T13:20:22;3.78;;;0.90;;
27899;SDS011;15243;50.726;7.080;2023-05-16T13:22:51;3.63;;;0.82;;
27899;SDS011;15243;50.726;7.080;2023-05-16T13:25:18;6.30;;;1.10;;
27899;SDS011;15243;50.726;7.080;2023-05-16T13:27:45;4.43;;;1.15;;
27899;SDS011;15243;50.726;7.080;2023-05-16T13:30:14;4.22;;;0.93;;
27899;SDS011;15243;50.726;7.080;2023-05-16T13:32:42;4.43;;;1.33;;
27899;SDS011;15243;50.726;7.080;2023-05-16T13:35:09;4.82;;;0.90;;
27899;SDS011;15243;50.726;7.080;2023-05-16T13:37:36;4.28;;;1.10;;
27899;SDS011;15243;50.726;7.080;2023-05-16T13:40:03;5.35;;;1.35;;
27899;SDS011;15243;50.726;7.080;2023-05-16T13:42:31;12.00;;;1.10;;
27899;SDS011;15243;50.726;7.080;2023-05-16T13:44:58;6.60;;;1.30;;
27899;SDS011;15243;50.726;7.080;2023-05-16T13:47:25;4.43;;;1.10;;
27899;SDS011;15243;50.726;7.080;2023-05-16T13:49:54;3.95;;;1.08;;
27899;SDS011;15243;50.726;7.080;2023-05-16T13:52:21;4.45;;;1.10;;
27899;SDS011;15243;50.726;7.080;2023-05-16T13:54:48;4.50;;;1.05;;
27899;SDS011;15243;50.726;7.080;2023-05-16T13:57:15;4.53;;;1.35;;
27899;SDS011;15243;50.726;7.080;2023-05-16T13:59:42;6.72;;;1.33;;
27899;SDS011;15243;50.726;7.080;2023-05-16T14:02:12;4.47;;;1.00;;
27899;SDS011;15243;50.726;7.080;2023-05-16T14:04:39;5.00;;;1.20;;
27899;SDS011;15243;50.726;7.080;2023-05-16T14:07:06;6.43;;;1.20;;
27899;SDS011;15243;50.726;7.080;2023-05-16T14:09:33;8.00;;;1.20;;
27899;SDS011;15243;50.726;7.080;2023-05-16T14:12:00;3.72;;;1.00;;
27899;SDS011;15243;50.726;7.080;2023-05-16T14:14:30;3.70;;;0.90;;
27899;SDS011;15243;50.726;7.080;2023-05-16T14:16:57;3.17;;;1.13;;
27899;SDS011;15243;50.726;7.080;2023-05-16T14:19:24;3.95;;;1.00;;
27899;SDS011;15243;50.726;7.080;2023-05-16T14:21:52;2.97;;;0.70;;
27899;SDS011;15243;50.726;7.080;2023-05-16T14:24:19;2.85;;;0.82;;
27899;SDS011;15243;50.726;7.080;2023-05-16T14:26:46;3.67;;;1.10;;
27899;SDS011;15243;50.726;7.080;2023-05-16T14:29:13;2.53;;;0.70;;
27899;SDS011;15243;50.726;7.080;2023-05-16T14:31:40;3.85;;;1.10;;
27899;SDS011;15243;50.726;7.080;2023-05-16T14:34:07;5.85;;;1.13;;
27899;SDS011;15243;50.726;7.080;2023-05-16T14:36:34;3.97;;;1.00;;
27899;SDS011;15243;50.726;7.080;2023-05-16T14:39:00;4.75;;;1.20;;
27899;SDS011;15243;50.726;7.080;2023-05-16T14:41:27;6.05;;;1.13;;
27899;SDS011;15243;50.726;7.080;2023-05-16T14:43:54;3.88;;;0.85;;
27899;SDS011;15243;50.726;7.080;2023-05-16T14:46:21;5.20;;;1.17;;
27899;SDS011;15243;50.726;7.080;2023-05-16T14:48:48;4.60;;;1.13;;
27899;SDS011;15243;50.726;7.080;2023-05-16T14:51:15;7.65;;;1.20;;
27899;SDS011;15243;50.726;7.080;2023-05-16T14:53:42;5.05;;;1.85;;
27899;SDS011;15243;50.726;7.080;2023-05-16T14:56:12;2.83;;;1.20;;
27899;SDS011;15243;50.726;7.080;2023-05-16T14:58:39;3.97;;;1.15;;
27899;SDS011;15243;50.726;7.080;2023-05-16T15:01:06;5.03;;;0.80;;
27899;SDS011;15243;50.726;7.080;2023-05-16T15:03:33;1.83;;;0.75;;
27899;SDS011;15243;50.726;7.080;2023-05-16T15:06:19;3.67;;;1.00;;
27899;SDS011;15243;50.726;7.080;2023-05-16T15:08:46;2.33;;;0.77;;
27899;SDS011;15243;50.726;7.080;2023-05-16T15:11:12;4.63;;;1.15;;